Time;durP1;ratioP1;P1;durP2;ratioP2;P2;SDS_P1;SDS_P2;PMS_P1;PMS_P2;Temp;Humidity;BMP_temperature;BMP_pressure;BME280_temperature;BME280_humidity;BME280_pressure;Samples;Min_cycle;Max_cycle;Signal;HPM_P1;HPM_P2
2022/08/21 00:01:23;;;;;;;;;;;24.10;52.60;;;;;;5097312;28;19908;-67
2022/08/21 00:03:49;;;;;;;;;;;24.10;52.10;;;;;;5097515;28;19962;-65
2022/08/21 00:06:15;;;;;;;;;;;24.10;52.20;;;;;;5097027;28;19916;-64
2022/08/21 00:08:40;;;;;;;;;;;24.10;52.60;;;;;;5097409;28;19915;-64
2022/08/21 00:11:06;;;;;;;;;;;24.10;52.10;;;;;;5097366;28;20021;-70
2022/08/21 00:13:32;;;;;;;;;;;24.10;51.80;;;;;;5097185;28;19921;-66
2022/08/21 00:15:58;;;;;;;;;;;24.10;52.20;;;;;;5097075;28;19930;-64
2022/08/21 00:18:24;;;;;;;;;;;24.10;53.10;;;;;;5096955;28;19931;-63
2022/08/21 00:20:49;;;;;;;;;;;24.10;52.50;;;;;;5096887;28;19959;-65
2022/08/21 00:23:15;;;;;;;;;;;24.10;52.20;;;;;;5097241;28;19987;-64
2022/08/21 00:25:41;;;;;;;;;;;24.10;51.10;;;;;;5096833;28;20275;-64
2022/08/21 00:28:07;;;;;;;;;;;24.20;52.30;;;;;;5096601;28;19909;-64
2022/08/21 00:30:33;;;;;;;;;;;24.20;51.10;;;;;;5096699;28;19908;-63
2022/08/21 00:32:59;;;;;;;;;;;24.20;50.90;;;;;;5095421;28;19999;-63
2022/08/21 00:35:35;;;;;;;;;;;24.20;51.70;;;;;;5096981;28;19916;-63
2022/08/21 00:38:03;;;;;;;;;;;24.20;51.80;;;;;;5096790;28;19913;-64
2022/08/21 00:40:31;;;;;;;;;;;24.20;51.20;;;;;;5096448;28;19908;-64
2022/08/21 00:42:57;;;;;;;;;;;24.20;50.40;;;;;;5096377;28;19923;-63
2022/08/21 00:45:23;;;;;;;;;;;24.30;50.90;;;;;;5096636;28;19919;-64
2022/08/21 00:47:49;;;;;;;;;;;24.20;50.90;;;;;;5094937;28;19951;-68
2022/08/21 00:50:15;;;;;;;;;;;24.30;50.70;;;;;;5095834;28;19915;-64
2022/08/21 00:52:41;;;;;;;;;;;24.40;50.30;;;;;;5096334;28;19908;-63
2022/08/21 00:55:08;;;;;;;;;;;24.40;50.00;;;;;;5096243;28;19908;-64
2022/08/21 00:57:38;;;;;;;;;;;24.40;49.70;;;;;;5096366;28;19965;-65
2022/08/21 01:00:07;;;;;;;;;;;24.40;49.30;;;;;;5096338;28;20271;-64
2022/08/21 01:02:33;;;;;;;;;;;24.40;49.30;;;;;;5094718;28;20310;-64
2022/08/21 01:04:58;;;;;;;;;;;24.40;49.50;;;;;;5096101;28;19923;-66
2022/08/21 01:07:24;;;;;;;;;;;24.40;48.50;;;;;;5095989;28;19908;-66
2022/08/21 01:09:51;;;;;;;;;;;24.50;48.00;;;;;;5095984;28;20287;-64
2022/08/21 01:12:17;;;;;;;;;;;24.50;49.60;;;;;;5095949;28;20288;-64
2022/08/21 01:14:43;;;;;;;;;;;24.50;49.10;;;;;;5095807;28;19912;-68
2022/08/21 01:17:10;;;;;;;;;;;24.40;49.50;;;;;;5095739;28;19965;-65
2022/08/21 01:19:35;;;;;;;;;;;24.40;49.40;;;;;;5094314;28;20015;-65
2022/08/21 01:22:01;;;;;;;;;;;24.40;49.20;;;;;;5095862;28;20011;-64
2022/08/21 01:24:27;;;;;;;;;;;24.40;49.30;;;;;;5095595;28;19908;-64
2022/08/21 01:26:52;;;;;;;;;;;24.40;49.60;;;;;;5095863;28;19912;-64
2022/08/21 01:29:27;;;;;;;;;;;24.30;50.10;;;;;;5095812;28;19943;-65
2022/08/21 01:31:52;;;;;;;;;;;24.40;49.20;;;;;;5095571;28;19943;-67
2022/08/21 01:34:18;;;;;;;;;;;24.40;49.70;;;;;;5095517;28;19923;-64
2022/08/21 01:36:44;;;;;;;;;;;24.40;49.50;;;;;;5095373;28;19908;-64
2022/08/21 01:39:10;;;;;;;;;;;24.30;49.90;;;;;;5095229;28;20291;-64
2022/08/21 01:41:36;;;;;;;;;;;24.40;49.50;;;;;;5095661;28;19908;-63
2022/08/21 01:44:02;;;;;;;;;;;24.40;49.80;;;;;;5094044;28;19912;-65
2022/08/21 01:46:28;;;;;;;;;;;24.40;50.10;;;;;;5095415;28;19912;-63
2022/08/21 01:48:54;;;;;;;;;;;24.40;49.80;;;;;;5095104;28;19995;-64
2022/08/21 01:51:20;;;;;;;;;;;24.40;50.10;;;;;;5095310;28;19948;-64
2022/08/21 01:53:45;;;;;;;;;;;24.30;50.00;;;;;;5095150;28;20006;-65
2022/08/21 01:56:12;;;;;;;;;;;24.20;50.10;;;;;;5095283;28;19908;-65
2022/08/21 01:58:39;;;;;;;;;;;24.20;49.90;;;;;;5095249;28;19939;-64
2022/08/21 02:01:04;;;;;;;;;;;24.20;49.80;;;;;;5095238;28;19912;-68
2022/08/21 02:03:30;;;;;;;;;;;24.30;49.90;;;;;;5094318;28;19908;-64
2022/08/21 02:05:56;;;;;;;;;;;24.30;50.00;;;;;;5095259;28;19953;-65
2022/08/21 02:08:23;;;;;;;;;;;24.20;50.10;;;;;;5095216;28;20332;-65
2022/08/21 02:10:49;;;;;;;;;;;24.20;50.30;;;;;;5095353;28;19953;-64
2022/08/21 02:13:15;;;;;;;;;;;24.20;49.90;;;;;;5095051;28;19994;-64
2022/08/21 02:15:41;;;;;;;;;;;24.20;50.30;;;;;;5095046;28;19908;-66
2022/08/21 02:18:07;;;;;;;;;;;24.20;50.20;;;;;;5094542;28;19960;-64
2022/08/21 02:20:37;;;;;;;;;;;24.20;50.50;;;;;;5094646;28;19912;-63
2022/08/21 02:23:03;;;;;;;;;;;24.10;50.40;;;;;;5094559;28;19908;-65
2022/08/21 02:25:30;;;;;;;;;;;24.10;50.20;;;;;;5094794;28;19912;-64
2022/08/21 02:27:56;;;;;;;;;;;24.20;50.00;;;;;;5094493;28;19915;-63
2022/08/21 02:30:32;;;;;;;;;;;24.20;49.80;;;;;;5094798;28;19908;-64
2022/08/21 02:32:58;;;;;;;;;;;24.20;50.30;;;;;;5097577;28;19987;-64
2022/08/21 02:35:23;;;;;;;;;;;24.10;50.40;;;;;;5099915;28;19950;-64
2022/08/21 02:37:51;;;;;;;;;;;24.10;50.40;;;;;;5099181;28;19912;-64
2022/08/21 02:40:18;;;;;;;;;;;24.10;50.40;;;;;;5096232;28;19912;-64
2022/08/21 02:42:44;;;;;;;;;;;24.10;50.20;;;;;;5094688;28;19912;-68
2022/08/21 02:45:10;;;;;;;;;;;24.10;50.10;;;;;;5094230;28;20002;-66
2022/08/21 02:47:36;;;;;;;;;;;24.10;50.90;;;;;;5094298;28;20371;-65
2022/08/21 02:50:02;;;;;;;;;;;24.10;52.60;;;;;;5094088;28;19957;-64
2022/08/21 02:52:28;;;;;;;;;;;24.00;53.10;;;;;;5094304;28;19998;-63
2022/08/21 02:54:54;;;;;;;;;;;23.90;53.70;;;;;;5094414;28;19940;-66
2022/08/21 02:57:19;;;;;;;;;;;23.80;54.70;;;;;;5094023;28;19915;-64
2022/08/21 02:59:45;;;;;;;;;;;23.70;56.00;;;;;;5094346;28;19908;-64
2022/08/21 03:02:11;;;;;;;;;;;23.60;57.30;;;;;;5094020;28;19914;-66
2022/08/21 03:04:36;;;;;;;;;;;23.50;57.90;;;;;;5093979;28;19989;-64
2022/08/21 03:07:02;;;;;;;;;;;23.50;59.40;;;;;;5094076;28;19912;-64
2022/08/21 03:09:28;;;;;;;;;;;23.50;58.80;;;;;;5094099;28;19931;-64
2022/08/21 03:11:53;;;;;;;;;;;23.40;59.30;;;;;;5094112;28;20375;-64
2022/08/21 03:14:19;;;;;;;;;;;23.30;59.80;;;;;;5093993;28;19908;-66
2022/08/21 03:16:45;;;;;;;;;;;23.20;60.80;;;;;;5093868;28;19909;-67
2022/08/21 03:19:11;;;;;;;;;;;23.10;61.20;;;;;;5093322;28;19931;-64
2022/08/21 03:21:36;;;;;;;;;;;23.10;60.90;;;;;;5094028;28;20275;-70
2022/08/21 03:24:02;;;;;;;;;;;23.00;61.80;;;;;;5092632;28;19912;-69
2022/08/21 03:26:28;;;;;;;;;;;23.00;62.10;;;;;;5092342;28;19943;-66
2022/08/21 03:28:54;;;;;;;;;;;22.90;62.90;;;;;;5093743;28;19970;-64
2022/08/21 03:31:21;;;;;;;;;;;22.90;62.90;;;;;;5093952;28;20032;-64
2022/08/21 03:33:46;;;;;;;;;;;22.90;62.40;;;;;;5093675;28;20021;-65
2022/08/21 03:36:12;;;;;;;;;;;22.80;63.90;;;;;;5094033;28;19933;-65
2022/08/21 03:38:38;;;;;;;;;;;22.40;64.60;;;;;;5093760;28;19916;-64
2022/08/21 03:41:04;;;;;;;;;;;22.50;63.10;;;;;;5094025;28;19908;-65
2022/08/21 03:43:30;;;;;;;;;;;22.50;65.10;;;;;;5093741;28;19916;-63
2022/08/21 03:45:55;;;;;;;;;;;22.50;66.00;;;;;;5093680;28;19908;-63
2022/08/21 03:48:21;;;;;;;;;;;22.40;67.40;;;;;;5093579;28;19909;-65
2022/08/21 03:50:49;;;;;;;;;;;22.50;65.30;;;;;;5093864;28;20053;-64
2022/08/21 03:53:15;;;;;;;;;;;22.50;64.10;;;;;;5093330;28;19908;-65
2022/08/21 03:55:40;;;;;;;;;;;22.50;64.30;;;;;;5093454;28;19909;-65
2022/08/21 03:58:06;;;;;;;;;;;22.40;65.90;;;;;;5093905;28;19922;-68
2022/08/21 04:00:32;;;;;;;;;;;22.30;67.90;;;;;;5094408;28;19975;-67
2022/08/21 04:02:57;;;;;;;;;;;22.30;67.50;;;;;;5094318;28;20441;-66
2022/08/21 04:05:29;;;;;;;;;;;22.30;67.20;;;;;;5092260;28;19931;-67
2022/08/21 04:07:56;;;;;;;;;;;22.30;67.20;;;;;;5093851;28;20000;-67
2022/08/21 04:10:24;;;;;;;;;;;22.20;68.10;;;;;;5093197;28;19912;-68
2022/08/21 04:12:50;;;;;;;;;;;22.20;68.40;;;;;;5093454;28;19908;-64
2022/08/21 04:15:15;;;;;;;;;;;22.10;67.00;;;;;;5093510;28;19908;-66
2022/08/21 04:17:41;;;;;;;;;;;22.10;66.80;;;;;;5093094;28;20456;-69
2022/08/21 04:20:07;;;;;;;;;;;22.10;69.10;;;;;;5093308;28;19908;-67
2022/08/21 04:22:33;;;;;;;;;;;22.10;67.70;;;;;;5093502;28;19959;-66
2022/08/21 04:24:58;;;;;;;;;;;22.00;68.80;;;;;;5093674;28;20399;-66
2022/08/21 04:27:24;;;;;;;;;;;22.10;68.10;;;;;;5095801;28;20008;-64
2022/08/21 04:29:49;;;;;;;;;;;22.00;68.70;;;;;;5096777;28;19908;-65
2022/08/21 04:32:21;;;;;;;;;;;22.00;68.40;;;;;;5097056;28;20344;-67
2022/08/21 04:34:46;;;;;;;;;;;22.10;68.20;;;;;;5097032;28;19908;-65
2022/08/21 04:37:12;;;;;;;;;;;22.10;69.00;;;;;;5096790;28;20406;-70
2022/08/21 04:39:38;;;;;;;;;;;22.10;67.70;;;;;;5095311;28;20375;-68
2022/08/21 04:42:06;;;;;;;;;;;22.10;69.30;;;;;;5096690;28;19915;-68
2022/08/21 04:44:32;;;;;;;;;;;22.00;70.40;;;;;;5096598;28;20000;-68
2022/08/21 04:46:57;;;;;;;;;;;22.00;70.70;;;;;;5096745;28;19912;-66
2022/08/21 04:49:23;;;;;;;;;;;22.00;70.60;;;;;;5096672;28;19923;-67
2022/08/21 04:51:49;;;;;;;;;;;22.00;70.90;;;;;;5096544;28;19908;-65
2022/08/21 04:54:18;;;;;;;;;;;22.00;69.80;;;;;;5096498;28;19909;-65
2022/08/21 04:56:49;;;;;;;;;;;22.00;68.90;;;;;;5096207;28;19908;-64
2022/08/21 04:59:24;;;;;;;;;;;22.10;68.50;;;;;;5096199;28;19961;-70
2022/08/21 05:01:50;;;;;;;;;;;22.10;69.50;;;;;;5096444;28;19947;-69
2022/08/21 05:04:18;;;;;;;;;;;22.10;68.20;;;;;;5096628;28;19908;-71
2022/08/21 05:06:46;;;;;;;;;;;22.20;70.50;;;;;;5096193;28;20390;-72
2022/08/21 05:09:14;;;;;;;;;;;22.20;69.30;;;;;;5096065;28;19908;-71
2022/08/21 05:11:40;;;;;;;;;;;22.30;68.40;;;;;;5096111;28;19915;-70
2022/08/21 05:14:05;;;;;;;;;;;22.30;70.60;;;;;;5096194;28;19915;-71
2022/08/21 05:16:31;;;;;;;;;;;22.40;69.10;;;;;;5096298;28;20002;-71
2022/08/21 05:18:56;;;;;;;;;;;22.30;71.80;;;;;;5095771;28;19966;-71
2022/08/21 05:21:22;;;;;;;;;;;22.30;72.60;;;;;;5095982;28;19912;-71
2022/08/21 05:23:47;;;;;;;;;;;22.20;72.80;;;;;;5095743;28;19909;-71
2022/08/21 05:26:13;;;;;;;;;;;22.30;72.10;;;;;;5096072;28;20019;-71
2022/08/21 05:28:38;;;;;;;;;;;22.30;71.60;;;;;;5096013;28;20305;-73
2022/08/21 05:31:04;;;;;;;;;;;22.40;71.60;;;;;;5095773;28;20010;-70
2022/08/21 05:33:30;;;;;;;;;;;22.30;70.90;;;;;;5095693;28;19916;-70
2022/08/21 05:35:56;;;;;;;;;;;22.40;71.60;;;;;;5095912;28;19953;-71
2022/08/21 05:38:26;;;;;;;;;;;22.50;70.00;;;;;;5095627;28;20003;-72
2022/08/21 05:40:52;;;;;;;;;;;22.40;72.00;;;;;;5095590;28;20010;-71
2022/08/21 05:43:18;;;;;;;;;;;22.40;72.80;;;;;;5095578;28;19959;-71
2022/08/21 05:45:44;;;;;;;;;;;22.20;73.20;;;;;;5094113;28;19915;-71
2022/08/21 05:48:14;;;;;;;;;;;22.30;71.60;;;;;;5095474;28;19961;-68
2022/08/21 05:50:40;;;;;;;;;;;22.20;72.60;;;;;;5095198;28;19947;-70
2022/08/21 05:53:06;;;;;;;;;;;22.30;72.60;;;;;;5095220;28;19912;-70
2022/08/21 05:55:32;;;;;;;;;;;22.20;71.70;;;;;;5095372;28;20034;-71
2022/08/21 05:57:58;;;;;;;;;;;22.20;73.00;;;;;;5095365;28;20011;-71
2022/08/21 06:00:24;;;;;;;;;;;22.20;71.40;;;;;;5095132;28;20011;-67
2022/08/21 06:02:50;;;;;;;;;;;22.40;69.90;;;;;;5095323;28;20377;-66
2022/08/21 06:05:16;;;;;;;;;;;22.50;69.40;;;;;;5095205;28;20002;-71
2022/08/21 06:07:42;;;;;;;;;;;22.90;68.20;;;;;;5094854;28;19914;-72
2022/08/21 06:10:07;;;;;;;;;;;23.40;65.90;;;;;;5095223;28;20282;-71
2022/08/21 06:12:33;;;;;;;;;;;23.90;63.50;;;;;;5095196;28;20432;-70
2022/08/21 06:14:58;;;;;;;;;;;24.30;62.40;;;;;;5094915;28;19935;-71
2022/08/21 06:17:24;;;;;;;;;;;24.70;61.50;;;;;;5094625;28;19999;-65
2022/08/21 06:19:51;;;;;;;;;;;25.10;60.50;;;;;;5093316;28;19916;-69
2022/08/21 06:22:17;;;;;;;;;;;25.40;62.00;;;;;;5094791;28;20028;-70
2022/08/21 06:24:43;;;;;;;;;;;25.70;60.30;;;;;;5095223;28;19908;-70
2022/08/21 06:27:08;;;;;;;;;;;25.90;61.20;;;;;;5094925;28;20416;-70
2022/08/21 06:29:34;;;;;;;;;;;26.10;59.50;;;;;;5094569;28;19947;-67
2022/08/21 06:32:01;;;;;;;;;;;26.40;59.40;;;;;;5094535;28;19908;-70
2022/08/21 06:34:26;;;;;;;;;;;26.60;59.00;;;;;;5094692;28;19931;-71
2022/08/21 06:36:52;;;;;;;;;;;26.80;58.60;;;;;;5094481;28;20375;-72
2022/08/21 06:39:17;;;;;;;;;;;27.00;56.30;;;;;;5094436;28;19976;-71
2022/08/21 06:41:43;;;;;;;;;;;27.10;56.50;;;;;;5094604;28;19912;-71
2022/08/21 06:44:09;;;;;;;;;;;27.30;55.30;;;;;;5094334;28;20050;-70
2022/08/21 06:46:34;;;;;;;;;;;27.50;53.70;;;;;;5094576;28;19966;-67
2022/08/21 06:49:00;;;;;;;;;;;27.60;51.90;;;;;;5094066;28;19908;-69
2022/08/21 06:51:26;;;;;;;;;;;27.40;52.10;;;;;;5094145;28;19915;-71
2022/08/21 06:53:52;;;;;;;;;;;27.00;55.50;;;;;;5094327;28;19944;-70
2022/08/21 06:56:17;;;;;;;;;;;26.70;55.90;;;;;;5094195;28;19983;-69
2022/08/21 06:58:43;;;;;;;;;;;26.40;57.00;;;;;;5094828;28;20007;-71
2022/08/21 07:01:08;;;;;;;;;;;26.50;60.60;;;;;;5095609;28;19955;-71
2022/08/21 07:03:36;;;;;;;;;;;26.70;59.40;;;;;;5094924;28;19908;-66
2022/08/21 07:06:02;;;;;;;;;;;27.00;59.30;;;;;;5094398;28;19915;-68
2022/08/21 07:08:28;;;;;;;;;;;27.30;55.30;;;;;;5094125;28;19915;-71
2022/08/21 07:10:55;;;;;;;;;;;27.70;55.60;;;;;;5092703;28;19909;-67
2022/08/21 07:13:21;;;;;;;;;;;27.90;53.70;;;;;;5094165;28;19962;-71
2022/08/21 07:15:47;;;;;;;;;;;28.10;48.00;;;;;;5094137;28;19947;-72
2022/08/21 07:18:13;;;;;;;;;;;28.20;46.20;;;;;;5093770;28;19967;-71
2022/08/21 07:20:38;;;;;;;;;;;28.30;45.80;;;;;;5093842;28;19908;-71
2022/08/21 07:23:05;;;;;;;;;;;28.30;46.50;;;;;;5094023;28;20386;-69
2022/08/21 07:25:31;;;;;;;;;;;28.30;48.50;;;;;;5094254;28;19915;-71
2022/08/21 07:27:57;;;;;;;;;;;28.40;47.90;;;;;;5094051;28;19908;-70
2022/08/21 07:30:22;;;;;;;;;;;28.40;49.10;;;;;;5093749;28;20371;-71
2022/08/21 07:32:51;;;;;;;;;;;28.50;48.90;;;;;;5093831;28;19908;-71
2022/08/21 07:35:17;;;;;;;;;;;28.60;46.90;;;;;;5093665;28;19915;-71
2022/08/21 07:37:42;;;;;;;;;;;28.30;46.10;;;;;;5093786;28;20255;-71
2022/08/21 07:40:08;;;;;;;;;;;28.30;46.60;;;;;;5093779;28;19912;-71
2022/08/21 07:42:34;;;;;;;;;;;28.20;47.40;;;;;;5093535;28;20271;-70
2022/08/21 07:44:59;;;;;;;;;;;27.80;48.50;;;;;;5093701;28;19962;-68
2022/08/21 07:47:25;;;;;;;;;;;27.80;48.50;;;;;;5093847;28;20007;-66
2022/08/21 07:49:50;;;;;;;;;;;27.70;47.60;;;;;;5093460;28;19908;-70
2022/08/21 07:52:16;;;;;;;;;;;27.70;49.10;;;;;;5093795;28;20333;-72
2022/08/21 07:54:41;;;;;;;;;;;27.70;48.30;;;;;;5093673;28;19908;-73
2022/08/21 07:57:07;;;;;;;;;;;27.70;48.60;;;;;;5093630;28;20006;-72
2022/08/21 07:59:32;;;;;;;;;;;27.70;51.30;;;;;;5093518;28;19927;-72
2022/08/21 08:01:58;;;;;;;;;;;27.80;51.40;;;;;;5095930;28;20112;-70
2022/08/21 08:04:24;;;;;;;;;;;27.80;50.50;;;;;;5097219;28;19908;-68
2022/08/21 08:06:50;;;;;;;;;;;27.40;50.80;;;;;;5097213;28;19915;-69
2022/08/21 08:09:16;;;;;;;;;;;27.70;49.90;;;;;;5097056;28;20263;-70
2022/08/21 08:11:45;;;;;;;;;;;27.90;50.00;;;;;;5097103;28;19946;-72
2022/08/21 08:14:10;;;;;;;;;;;28.30;50.60;;;;;;5097337;28;19908;-72
2022/08/21 08:16:36;;;;;;;;;;;28.50;50.60;;;;;;5096965;28;20370;-72
2022/08/21 08:19:02;;;;;;;;;;;28.60;50.10;;;;;;5096629;28;20427;-71
2022/08/21 08:21:28;;;;;;;;;;;28.60;49.90;;;;;;5097255;28;19981;-71
2022/08/21 08:23:54;;;;;;;;;;;28.70;49.60;;;;;;5096968;28;20364;-68
2022/08/21 08:26:19;;;;;;;;;;;28.60;48.90;;;;;;5097193;28;19930;-67
2022/08/21 08:28:47;;;;;;;;;;;28.60;49.00;;;;;;5095645;28;19909;-68
2022/08/21 08:31:13;;;;;;;;;;;28.80;48.30;;;;;;5097037;28;19919;-71
2022/08/21 08:33:39;;;;;;;;;;;28.80;47.50;;;;;;5096903;28;19953;-71
2022/08/21 08:36:05;;;;;;;;;;;28.80;48.00;;;;;;5095334;28;20007;-66
2022/08/21 08:38:30;;;;;;;;;;;28.80;47.60;;;;;;5096850;28;19952;-70
2022/08/21 08:41:12;;;;;;;;;;;28.60;48.10;;;;;;5096610;28;20000;-71
2022/08/21 08:43:37;;;;;;;;;;;28.20;49.20;;;;;;5096444;28;19914;-71
2022/08/21 08:46:05;;;;;;;;;;;28.10;49.50;;;;;;5096505;28;19908;-70
2022/08/21 08:48:36;;;;;;;;;;;28.10;50.80;;;;;;5096375;28;19908;-71
2022/08/21 08:51:02;;;;;;;;;;;28.30;51.20;;;;;;5096225;28;19998;-72
2022/08/21 08:53:42;;;;;;;;;;;28.40;49.40;;;;;;5096487;28;19909;-70
2022/08/21 08:56:07;;;;;;;;;;;28.50;49.80;;;;;;5096237;28;20355;-71
2022/08/21 08:58:37;;;;;;;;;;;28.10;49.80;;;;;;5094864;28;19912;-70
2022/08/21 09:01:05;;;;;;;;;;;27.70;49.90;;;;;;5096107;28;19936;-72
2022/08/21 09:03:31;;;;;;;;;;;27.40;51.70;;;;;;5096283;28;20314;-70
2022/08/21 09:06:10;;;;;;;;;;;27.30;51.90;;;;;;5096314;28;19915;-71
2022/08/21 09:09:02;;;;;;;;;;;27.30;51.60;;;;;;5096026;28;19908;-72
2022/08/21 09:11:27;;;;;;;;;;;27.50;51.60;;;;;;5096021;28;19914;-72
2022/08/21 09:13:56;;;;;;;;;;;27.50;51.30;;;;;;5096368;28;19999;-71
2022/08/21 09:16:31;;;;;;;;;;;27.50;51.40;;;;;;5096373;28;19916;-73
2022/08/21 09:19:03;;;;;;;;;;;27.50;51.30;;;;;;5095525;28;19924;-71
2022/08/21 09:21:47;;;;;;;;;;;27.60;52.30;;;;;;5096106;28;19983;-71
2022/08/21 09:24:16;;;;;;;;;;;27.80;52.40;;;;;;5096028;28;19916;-72
2022/08/21 09:27:14;;;;;;;;;;;27.90;50.80;;;;;;5095586;28;19931;-68
2022/08/21 09:29:42;;;;;;;;;;;27.80;50.00;;;;;;5072242;28;19908;-67
2022/08/21 09:32:19;;;;;;;;;;;27.80;50.30;;;;;;5095884;28;19947;-72
2022/08/21 09:34:59;;;;;;;;;;;28.10;51.00;;;;;;5095763;28;19908;-69
2022/08/21 09:37:26;;;;;;;;;;;28.30;51.20;;;;;;5095534;28;20411;-67
2022/08/21 09:39:51;;;;;;;;;;;28.40;50.60;;;;;;5095380;28;19917;-65
2022/08/21 09:42:25;;;;;;;;;;;28.50;50.30;;;;;;5095604;28;19919;-71
2022/08/21 09:45:05;;;;;;;;;;;28.30;48.40;;;;;;5095291;28;20364;-67
2022/08/21 09:47:30;;;;;;;;;;;28.30;49.10;;;;;;5095596;28;19908;-67
2022/08/21 09:50:06;;;;;;;;;;;28.40;50.00;;;;;;5095350;28;19915;-64
2022/08/21 09:52:32;;;;;;;;;;;28.30;48.10;;;;;;5095356;28;19908;-74
2022/08/21 09:54:58;;;;;;;;;;;28.10;48.90;;;;;;5095392;28;19908;-70
2022/08/21 09:57:46;;;;;;;;;;;27.80;49.00;;;;;;5095380;28;19914;-63
2022/08/21 10:00:17;;;;;;;;;;;27.60;50.40;;;;;;5094421;28;19923;-71
2022/08/21 10:02:43;;;;;;;;;;;27.80;49.40;;;;;;5095168;28;19982;-71
2022/08/21 10:05:17;;;;;;;;;;;27.90;48.30;;;;;;5093914;28;20363;-66
2022/08/21 10:07:43;;;;;;;;;;;27.70;48.40;;;;;;5095278;28;19912;-66
2022/08/21 10:10:14;;;;;;;;;;;27.40;49.40;;;;;;5095456;28;20398;-68
2022/08/21 10:12:44;;;;;;;;;;;27.70;49.90;;;;;;5095200;28;19908;-71
2022/08/21 10:15:19;;;;;;;;;;;27.90;48.60;;;;;;5095221;28;19915;-67
2022/08/21 10:17:54;;;;;;;;;;;27.80;48.40;;;;;;5094763;28;19916;-67
2022/08/21 10:20:25;;;;;;;;;;;27.70;48.40;;;;;;5094936;28;19908;-65
2022/08/21 10:22:50;;;;;;;;;;;27.90;48.70;;;;;;5092918;28;19912;-66
2022/08/21 10:25:21;;;;;;;;;;;28.00;48.10;;;;;;5094897;28;20431;-65
2022/08/21 10:27:59;;;;;;;;;;;28.00;48.80;;;;;;5094820;28;20049;-67
2022/08/21 10:30:45;;;;;;;;;;;28.20;49.60;;;;;;5094640;28;19961;-67
2022/08/21 10:33:28;;;;;;;;;;;28.40;50.00;;;;;;5093102;28;19912;-67
2022/08/21 10:36:03;;;;;;;;;;;28.50;49.30;;;;;;5093687;28;19912;-71
2022/08/21 10:38:28;;;;;;;;;;;28.60;49.20;;;;;;5094724;28;19916;-70
2022/08/21 10:40:54;;;;;;;;;;;28.70;49.40;;;;;;5094833;28;20398;-67
2022/08/21 10:43:19;;;;;;;;;;;28.80;49.10;;;;;;5094760;28;19908;-68
2022/08/21 10:45:48;;;;;;;;;;;28.90;49.00;;;;;;5094748;28;19930;-70
2022/08/21 10:48:27;;;;;;;;;;;29.00;49.90;;;;;;5094354;28;20331;-71
2022/08/21 10:51:19;;;;;;;;;;;28.90;48.70;;;;;;5094555;28;19908;-70
2022/08/21 10:53:56;;;;;;;;;;;29.10;49.80;;;;;;5078074;28;19908;-70
2022/08/21 10:56:21;;;;;;;;;;;29.20;47.90;;;;;;5093812;28;20356;-72
2022/08/21 10:58:56;;;;;;;;;;;29.10;48.10;;;;;;5093894;28;19916;-71
2022/08/21 11:01:27;;;;;;;;;;;29.10;48.50;;;;;;5094598;28;19908;-70
2022/08/21 11:04:19;;;;;;;;;;;29.00;47.40;;;;;;5094466;28;20271;-72
2022/08/21 11:06:52;;;;;;;;;;;29.00;47.70;;;;;;5089545;28;19961;-69
2022/08/21 11:09:19;;;;;;;;;;;29.20;46.20;;;;;;5093978;28;20370;-71
2022/08/21 11:11:51;;;;;;;;;;;29.20;46.70;;;;;;5093674;28;19909;-70
2022/08/21 11:14:34;;;;;;;;;;;29.10;46.40;;;;;;5094166;28;19952;-71
2022/08/21 11:17:10;;;;;;;;;;;28.80;43.30;;;;;;5093769;28;19908;-72
2022/08/21 11:19:49;;;;;;;;;;;28.50;45.40;;;;;;5093706;28;19922;-67
2022/08/21 11:22:15;;;;;;;;;;;28.20;44.20;;;;;;5092249;28;19908;-67
2022/08/21 11:24:59;;;;;;;;;;;27.90;45.10;;;;;;5093364;28;19920;-66
2022/08/21 11:27:28;;;;;;;;;;;28.00;45.10;;;;;;5094058;28;19908;-70
2022/08/21 11:29:56;;;;;;;;;;;28.00;44.70;;;;;;5093482;28;20282;-68
2022/08/21 11:32:24;;;;;;;;;;;27.80;46.40;;;;;;5093778;28;20416;-71
2022/08/21 11:35:02;;;;;;;;;;;27.90;45.60;;;;;;5095290;28;19916;-67
2022/08/21 11:37:53;;;;;;;;;;;27.80;44.30;;;;;;5097912;28;19997;-73
2022/08/21 11:40:22;;;;;;;;;;;27.70;46.10;;;;;;5096565;28;19938;-71
2022/08/21 11:42:58;;;;;;;;;;;28.20;47.30;;;;;;5097489;28;20379;-71
2022/08/21 11:45:30;;;;;;;;;;;28.60;46.40;;;;;;5097535;28;20015;-68
2022/08/21 11:48:09;;;;;;;;;;;28.70;45.90;;;;;;5098045;28;20012;-71
2022/08/21 11:50:36;;;;;;;;;;;28.80;45.70;;;;;;5097856;28;19908;-68
2022/08/21 11:53:01;;;;;;;;;;;28.70;45.70;;;;;;5097532;28;19914;-64
2022/08/21 11:55:41;;;;;;;;;;;28.20;45.70;;;;;;5097520;28;19995;-64
2022/08/21 11:58:15;;;;;;;;;;;28.00;46.90;;;;;;5097544;28;19920;-72
2022/08/21 12:00:46;;;;;;;;;;;28.40;47.20;;;;;;5097251;28;19916;-69
2022/08/21 12:03:35;;;;;;;;;;;28.60;47.00;;;;;;5097375;28;19908;-66
2022/08/21 12:06:14;;;;;;;;;;;28.50;48.30;;;;;;5077481;28;19915;-68
2022/08/21 12:08:42;;;;;;;;;;;28.20;48.40;;;;;;5097176;28;19908;-69
2022/08/21 12:11:16;;;;;;;;;;;28.50;48.10;;;;;;5097385;28;19908;-67
2022/08/21 12:13:57;;;;;;;;;;;28.70;47.30;;;;;;5097242;28;19908;-65
2022/08/21 12:16:36;;;;;;;;;;;28.40;47.90;;;;;;5095803;28;19912;-66
2022/08/21 12:19:12;;;;;;;;;;;28.00;49.00;;;;;;5096631;28;20431;-67
2022/08/21 12:21:52;;;;;;;;;;;28.00;49.90;;;;;;5097097;28;19915;-71
2022/08/21 12:24:28;;;;;;;;;;;28.00;51.50;;;;;;5097038;28;20335;-69
2022/08/21 12:26:55;;;;;;;;;;;28.40;49.90;;;;;;5096620;28;19912;-65
2022/08/21 12:29:35;;;;;;;;;;;28.80;48.40;;;;;;5096870;28;20336;-71
2022/08/21 12:32:01;;;;;;;;;;;29.00;48.00;;;;;;5096798;28;20348;-69
2022/08/21 12:34:47;;;;;;;;;;;28.80;48.10;;;;;;5095278;28;19908;-71
2022/08/21 12:37:25;;;;;;;;;;;28.70;47.30;;;;;;5096077;28;19909;-71
2022/08/21 12:39:52;;;;;;;;;;;28.90;49.10;;;;;;5096558;28;19916;-71
2022/08/21 12:42:23;;;;;;;;;;;29.10;49.20;;;;;;5096669;28;19994;-67
2022/08/21 12:44:49;;;;;;;;;;;29.40;48.50;;;;;;5096544;28;20061;-70
2022/08/21 12:47:15;;;;;;;;;;;29.60;48.20;;;;;;5095848;28;20355;-71
2022/08/21 12:49:50;;;;;;;;;;;29.80;47.90;;;;;;5096384;28;20135;-70
2022/08/21 12:52:21;;;;;;;;;;;29.80;47.70;;;;;;5096465;28;20278;-71
2022/08/21 12:54:46;;;;;;;;;;;29.80;47.20;;;;;;5096550;28;20418;-70
2022/08/21 12:57:26;;;;;;;;;;;29.90;47.30;;;;;;5096539;28;19992;-70
2022/08/21 12:59:52;;;;;;;;;;;29.80;47.00;;;;;;5096296;28;20002;-73
2022/08/21 13:02:19;;;;;;;;;;;29.50;47.00;;;;;;5096181;28;19915;-71
2022/08/21 13:04:46;;;;;;;;;;;29.70;47.70;;;;;;5096396;28;20393;-70
2022/08/21 13:07:14;;;;;;;;;;;29.80;47.40;;;;;;5096600;28;19908;-72
2022/08/21 13:09:52;;;;;;;;;;;29.50;47.40;;;;;;5096352;28;19912;-70
2022/08/21 13:12:18;;;;;;;;;;;29.70;48.20;;;;;;5096075;28;19908;-66
2022/08/21 13:14:46;;;;;;;;;;;29.80;48.70;;;;;;5095907;28;19908;-68
2022/08/21 13:17:12;;;;;;;;;;;29.70;47.30;;;;;;5096056;28;19948;-69
2022/08/21 13:19:38;;;;;;;;;;;29.50;47.60;;;;;;5096104;28;19960;-69
2022/08/21 13:22:11;;;;;;;;;;;29.20;49.50;;;;;;5096063;28;20387;-67
2022/08/21 13:24:37;;;;;;;;;;;29.40;49.20;;;;;;5096145;28;20356;-67
2022/08/21 13:27:03;;;;;;;;;;;29.60;48.70;;;;;;5094671;28;19908;-69
2022/08/21 13:29:30;;;;;;;;;;;29.70;48.70;;;;;;5095901;28;19947;-69
2022/08/21 13:31:58;;;;;;;;;;;29.10;48.50;;;;;;5095619;28;19908;-65
2022/08/21 13:34:25;;;;;;;;;;;28.70;50.60;;;;;;5095882;28;19908;-66
2022/08/21 13:36:52;;;;;;;;;;;29.00;50.30;;;;;;5095534;28;19912;-66
2022/08/21 13:39:18;;;;;;;;;;;29.20;49.60;;;;;;5094172;28;20413;-66
2022/08/21 13:41:45;;;;;;;;;;;29.50;49.90;;;;;;5095299;28;19944;-68
2022/08/21 13:44:31;;;;;;;;;;;29.70;49.90;;;;;;5095306;28;19966;-67
2022/08/21 13:46:57;;;;;;;;;;;29.80;48.50;;;;;;5095382;28;20279;-68
2022/08/21 13:49:33;;;;;;;;;;;29.70;49.20;;;;;;5094975;28;19918;-65
2022/08/21 13:51:59;;;;;;;;;;;29.70;50.50;;;;;;5095320;28;19931;-67
2022/08/21 13:54:36;;;;;;;;;;;29.00;49.50;;;;;;5095223;28;20375;-65
2022/08/21 13:57:03;;;;;;;;;;;28.70;50.60;;;;;;5095120;28;19976;-68
2022/08/21 13:59:30;;;;;;;;;;;29.20;51.00;;;;;;5093934;28;19922;-65
2022/08/21 14:01:59;;;;;;;;;;;29.30;47.90;;;;;;5095004;28;19908;-68
2022/08/21 14:04:24;;;;;;;;;;;29.30;45.60;;;;;;5095113;28;19908;-66
2022/08/21 14:06:51;;;;;;;;;;;28.70;45.20;;;;;;5094995;28;20023;-66
2022/08/21 14:09:25;;;;;;;;;;;28.40;43.90;;;;;;5095123;28;19913;-67
2022/08/21 14:11:52;;;;;;;;;;;28.40;44.30;;;;;;5094518;28;19908;-67
2022/08/21 14:14:23;;;;;;;;;;;28.50;45.40;;;;;;5094758;28;20004;-65
2022/08/21 14:16:57;;;;;;;;;;;28.60;44.60;;;;;;5094644;28;20429;-69
2022/08/21 14:19:25;;;;;;;;;;;29.00;45.70;;;;;;5094533;28;19931;-66
2022/08/21 14:21:51;;;;;;;;;;;29.20;43.70;;;;;;5094572;28;19962;-67
2022/08/21 14:24:23;;;;;;;;;;;29.30;44.50;;;;;;5095234;28;19948;-72